createdAt,value
2022-11-01T00:01:12.433Z,99512.74
2022-11-01T00:10:48.046Z,99506.92
2022-11-01T00:20:20.622Z,99512.56
2022-11-01T00:29:54.883Z,99509.41
2022-11-01T00:39:30.496Z,99491.53
2022-11-01T00:49:04.448Z,99483.09
2022-11-01T00:58:37.660Z,99458.64
2022-11-01T01:08:13.696Z,99450.56
2022-11-01T01:17:46.018Z,99445.31
2022-11-01T01:27:20.597Z,99439.63
2022-11-01T01:36:54.546Z,99458.56
2022-11-01T01:46:30.368Z,99444.16
2022-11-01T01:56:02.865Z,99448.45
2022-11-01T02:05:37.005Z,99445.88
2022-11-01T02:15:12.167Z,99449.36
2022-11-01T02:24:46.289Z,99458.27
2022-11-01T02:34:19.362Z,99438.34
2022-11-01T02:43:53.846Z,99434.95
2022-11-01T02:53:28.298Z,99438.86
2022-11-01T03:03:04.766Z,99478.59
2022-11-01T03:12:39.212Z,99495.61
2022-11-01T03:22:12.068Z,99487.14
2022-11-01T03:31:46.458Z,99494.61
2022-11-01T03:41:22.282Z,99486.77
2022-11-01T03:50:54.973Z,99489.70
2022-11-01T04:00:29.676Z,99518.05
2022-11-01T04:10:04.317Z,99522.42
2022-11-01T04:19:39.043Z,99519.91
2022-11-01T04:29:14.802Z,99518.56
2022-11-01T04:38:48.825Z,99526.55
2022-11-01T04:48:21.948Z,99548.37
2022-11-01T04:57:56.797Z,99554.30
2022-11-01T05:07:31.647Z,99552.35
2022-11-01T05:17:06.943Z,99556.74
2022-11-01T05:26:41.448Z,99570.70
2022-11-01T05:36:14.875Z,99579.75
2022-11-01T05:45:49.050Z,99590.02
2022-11-01T05:55:24.135Z,99612.72
2022-11-01T06:05:00.399Z,99618.04
2022-11-01T06:14:32.355Z,99619.50
2022-11-01T06:24:08.611Z,99629.44
2022-11-01T06:33:41.554Z,99631.95
2022-11-01T06:43:16.414Z,99649.93
2022-11-01T06:52:51.354Z,99671.51
2022-11-01T07:02:28.641Z,99686.59
2022-11-01T07:11:59.462Z,99694.28
2022-11-01T07:21:34.930Z,99704.34
2022-11-01T07:31:09.780Z,99699.22
2022-11-01T07:40:46.318Z,99701.91
2022-11-01T07:50:19.348Z,99732.06
2022-11-01T07:59:54.118Z,99732.91
2022-11-01T08:09:29.711Z,99747.88
2022-11-01T08:19:02.540Z,99751.77
2022-11-01T08:28:36.658Z,99765.13
2022-11-01T08:38:13.645Z,99784.53
2022-11-01T08:47:44.686Z,99798.84
2022-11-01T08:57:18.924Z,99815.80
2022-11-01T09:06:53.541Z,99832.03
2022-11-01T09:16:29.553Z,99829.05
2022-11-01T09:26:03.649Z,99831.13
2022-11-01T09:27:07.643Z,99836.25
2022-11-01T09:28:11.617Z,99840.38
2022-11-01T09:37:44.900Z,99846.04
2022-11-01T09:38:47.290Z,99845.63
2022-11-01T09:39:51.377Z,99845.89
2022-11-01T09:40:53.707Z,99844.80
2022-11-01T09:41:56.203Z,99843.70
2022-11-01T09:43:01.669Z,99846.91
2022-11-01T09:44:01.220Z,99845.87
2022-11-01T09:45:05.355Z,99851.47
2022-11-01T09:46:07.802Z,99852.84
2022-11-01T09:47:11.906Z,99847.69
2022-11-01T09:56:43.022Z,99885.10
2022-11-01T09:57:45.674Z,99880.08
2022-11-01T09:58:48.204Z,99883.52
2022-11-01T09:59:50.707Z,99876.66
2022-11-01T10:00:53.152Z,99883.05
2022-11-01T10:01:55.666Z,99878.44
2022-11-01T10:02:58.091Z,99884.14
2022-11-01T10:04:00.547Z,99881.39
2022-11-01T10:05:04.645Z,99890.08
2022-11-01T10:06:07.319Z,99891.91
2022-11-01T10:07:09.799Z,99884.12
2022-11-01T10:08:13.851Z,99889.60
2022-11-01T10:09:16.247Z,99886.23
2022-11-01T10:10:19.694Z,99888.66
2022-11-01T10:11:23.718Z,99888.10
2022-11-01T10:20:55.903Z,99903.92
2022-11-01T10:21:58.356Z,99892.69
2022-11-01T10:23:01.165Z,99897.23
2022-11-01T10:24:03.429Z,99907.80
2022-11-01T10:25:05.894Z,99900.59
2022-11-01T10:26:08.347Z,99896.88
2022-11-01T10:27:10.783Z,99898.80
2022-11-01T10:28:13.258Z,99897.03
2022-11-01T10:29:17.384Z,99892.18
2022-11-01T10:30:19.806Z,99890.99
2022-11-01T10:31:22.198Z,99890.88
2022-11-01T10:32:24.623Z,99891.91
2022-11-01T10:33:27.103Z,99894.54
2022-11-01T10:34:33.349Z,99886.92
2022-11-01T10:35:33.730Z,99893.64
2022-11-01T10:36:39.112Z,99897.29
2022-11-01T10:37:43.824Z,99898.03
2022-11-01T10:39:37.233Z,99896.63
2022-11-01T10:48:14.120Z,99905.10
2022-11-01T10:49:16.616Z,99893.50
2022-11-01T10:50:19.225Z,99895.96
2022-11-01T10:51:25.377Z,99892.11
2022-11-01T10:52:24.250Z,99893.12
2022-11-01T10:53:28.179Z,99893.77
2022-11-01T10:54:30.587Z,99896.52
2022-11-01T10:55:33.197Z,99893.75
2022-11-01T10:56:35.769Z,99898.66
2022-11-01T10:57:39.727Z,99896.11
2022-11-01T10:58:43.779Z,99891.34
2022-11-01T10:59:47.728Z,99892.23
2022-11-01T11:00:50.188Z,99890.48
2022-11-01T11:01:52.672Z,99892.83
2022-11-01T11:02:55.028Z,99892.15
2022-11-01T11:03:59.197Z,99888.45
2022-11-01T11:05:04.123Z,99887.09
2022-11-01T11:06:08.188Z,99884.29
2022-11-01T11:07:10.399Z,99892.65
2022-11-01T11:08:15.780Z,99883.33
2022-11-01T11:09:18.003Z,99882.10
2022-11-01T11:10:24.184Z,99887.28
2022-11-01T11:11:27.186Z,99886.21
2022-11-01T11:12:30.496Z,99884.71
2022-11-01T11:13:34.532Z,99892.59
2022-11-01T11:14:36.866Z,99884.29
2022-11-01T11:15:41.051Z,99888.55
2022-11-01T11:16:43.281Z,99880.54
2022-11-01T11:17:45.856Z,99882.81
2022-11-01T11:18:49.982Z,99890.47
2022-11-01T11:19:52.618Z,99887.05
2022-11-01T11:20:56.604Z,99884.64
2022-11-01T11:22:00.664Z,99880.55
2022-11-01T11:23:03.411Z,99875.38
2022-11-01T11:24:07.103Z,99893.62
2022-11-01T11:25:09.483Z,99888.44
2022-11-01T11:26:13.599Z,99882.25
2022-11-01T11:27:16.180Z,99880.00
2022-11-01T11:28:19.422Z,99885.83
2022-11-01T11:29:21.826Z,99879.26
2022-11-01T11:30:24.299Z,99884.92
2022-11-01T11:31:26.878Z,99878.97
2022-11-01T11:32:29.282Z,99880.30
2022-11-01T11:33:31.798Z,99883.85
2022-11-01T11:34:35.825Z,99889.23
2022-11-01T11:35:41.101Z,99886.84
2022-11-01T11:36:44.988Z,99883.08
2022-11-01T11:37:47.286Z,99885.38
2022-11-01T11:38:51.371Z,99891.63
2022-11-01T11:39:56.636Z,99884.89
2022-11-01T11:40:59.042Z,99885.28
2022-11-01T11:42:01.513Z,99887.56
2022-11-01T11:43:04.225Z,99892.84
2022-11-01T11:44:06.677Z,99888.73
2022-11-01T11:45:09.218Z,99889.88
2022-11-01T11:46:12.201Z,99884.27
2022-11-01T11:47:16.474Z,99892.42
2022-11-01T11:48:18.833Z,99895.67
2022-11-01T11:49:21.299Z,99894.59
2022-11-01T11:50:23.811Z,99890.76
2022-11-01T11:51:26.290Z,99885.49
2022-11-01T11:52:29.799Z,99888.88
2022-11-01T11:53:31.366Z,99891.80
2022-11-01T11:54:34.751Z,99893.56
2022-11-01T11:55:38.800Z,99891.64
2022-11-01T11:56:41.220Z,99897.63
2022-11-01T11:57:43.646Z,99894.27
2022-11-01T11:58:46.212Z,99898.98
2022-11-01T11:59:48.673Z,99893.47
2022-11-01T12:00:54.143Z,99900.02
2022-11-01T12:01:56.459Z,99900.89
2022-11-01T12:02:58.850Z,99893.13
2022-11-01T12:04:01.231Z,99901.34
2022-11-01T12:05:03.698Z,99893.31
2022-11-01T12:06:07.926Z,99905.70
2022-11-01T12:07:11.925Z,99900.92
2022-11-01T12:08:14.229Z,99900.37
2022-11-01T12:09:20.647Z,99898.83
2022-11-01T12:10:19.169Z,99903.94
2022-11-01T12:11:23.221Z,99909.77
2022-11-01T12:12:25.566Z,99900.88
2022-11-01T12:13:28.090Z,99898.91
2022-11-01T12:14:30.618Z,99910.05
2022-11-01T12:15:36.926Z,99906.83
2022-11-01T12:16:37.500Z,99897.27
2022-11-01T12:17:41.878Z,99897.62
2022-11-01T12:18:44.512Z,99908.42
2022-11-01T12:19:47.306Z,99908.73
2022-11-01T12:20:49.848Z,99907.30
2022-11-01T12:21:53.759Z,99910.48
2022-11-01T12:22:57.721Z,99908.16
2022-11-01T12:24:00.110Z,99912.80
2022-11-01T12:25:02.487Z,99914.64
2022-11-01T12:26:06.585Z,99914.38
2022-11-01T12:27:08.941Z,99918.19
2022-11-01T12:28:11.415Z,99904.93
2022-11-01T12:29:16.844Z,99907.79
2022-11-01T12:30:23.043Z,99909.50
2022-11-01T12:31:28.886Z,99907.06
2022-11-01T12:32:29.466Z,99908.45
2022-11-01T12:33:32.729Z,99905.68
2022-11-01T12:34:36.076Z,99912.94
2022-11-01T12:35:37.556Z,99911.86
2022-11-01T12:36:41.699Z,99906.98
2022-11-01T12:37:47.148Z,99907.77
2022-11-01T12:38:49.515Z,99913.22
2022-11-01T12:39:51.960Z,99909.54
2022-11-01T12:49:25.838Z,99913.45
2022-11-01T12:58:58.530Z,99915.27
2022-11-01T13:00:01.011Z,99907.33
2022-11-01T13:01:05.135Z,99908.13
2022-11-01T13:02:07.818Z,99905.64
2022-11-01T13:03:10.249Z,99909.08
2022-11-01T13:04:12.708Z,99907.02
2022-11-01T13:05:16.645Z,99903.06
2022-11-01T13:06:19.977Z,99905.70
2022-11-01T13:07:22.262Z,99901.44
2022-11-01T13:08:25.827Z,99899.11
2022-11-01T13:09:28.208Z,99899.22
2022-11-01T13:10:30.762Z,99896.40
2022-11-01T13:11:33.203Z,99896.25
2022-11-01T13:12:35.769Z,99900.48
2022-11-01T13:13:39.725Z,99900.87
2022-11-01T13:14:42.085Z,99899.28
2022-11-01T13:15:49.766Z,99906.66
2022-11-01T13:16:51.927Z,99902.00
2022-11-01T13:17:54.195Z,99901.59
2022-11-01T13:18:59.576Z,99898.12
2022-11-01T13:20:05.973Z,99900.86
2022-11-01T13:21:09.023Z,99896.84
2022-11-01T13:22:11.310Z,99903.72
2022-11-01T13:23:15.299Z,99905.81
2022-11-01T13:24:19.090Z,99906.41
2022-11-01T13:25:21.470Z,99902.77
2022-11-01T13:26:23.899Z,99899.21
2022-11-01T13:27:26.332Z,99897.06
2022-11-01T13:28:35.537Z,99903.38
2022-11-01T13:29:39.219Z,99900.19
2022-11-01T13:30:42.480Z,99900.53
2022-11-01T13:31:44.722Z,99902.13
2022-11-01T13:32:47.348Z,99905.88
2022-11-01T13:33:53.706Z,99898.92
2022-11-01T13:34:55.788Z,99900.77
2022-11-01T13:35:58.301Z,99908.25
2022-11-01T13:37:02.649Z,99900.09
2022-11-01T13:38:04.811Z,99901.30
2022-11-01T13:39:07.346Z,99900.22
2022-11-01T13:40:09.846Z,99903.93
2022-11-01T13:41:12.446Z,99903.52
2022-11-01T13:42:14.813Z,99907.77
2022-11-01T13:43:18.120Z,99913.84
2022-11-01T13:44:21.913Z,99908.52
2022-11-01T13:45:24.155Z,99913.23
2022-11-01T13:46:26.660Z,99901.75
2022-11-01T13:47:29.089Z,99905.92
2022-11-01T13:48:31.492Z,99908.48
2022-11-01T13:49:36.899Z,99909.59
2022-11-01T13:50:39.158Z,99912.26
2022-11-01T13:51:42.505Z,99910.30
2022-11-01T13:52:44.918Z,99917.30
2022-11-01T13:53:49.235Z,99909.84
2022-11-01T13:54:51.622Z,99915.34
2022-11-01T13:55:53.913Z,99914.75
2022-11-01T13:56:57.407Z,99920.14
2022-11-01T13:57:59.914Z,99922.25
2022-11-01T14:07:30.813Z,99939.63
2022-11-01T14:08:33.342Z,99939.07
2022-11-01T14:09:35.652Z,99943.77
2022-11-01T14:10:38.303Z,99941.38
2022-11-01T14:11:43.211Z,99943.21
2022-11-01T14:12:49.294Z,99944.05
2022-11-01T14:13:50.359Z,99945.88
2022-11-01T14:14:52.810Z,99946.17
2022-11-01T14:15:57.788Z,99950.91
2022-11-01T14:17:00.186Z,99949.02
2022-11-01T14:18:04.164Z,99945.00
2022-11-01T14:19:06.033Z,99949.17
2022-11-01T14:20:08.569Z,99946.73
2022-11-01T14:21:11.013Z,99953.41
2022-11-01T14:22:13.484Z,99949.56
2022-11-01T14:23:16.262Z,99945.20
2022-11-01T14:24:18.717Z,99952.66
2022-11-01T14:25:21.286Z,99950.70
2022-11-01T14:26:23.649Z,99945.88
2022-11-01T14:27:27.670Z,99944.31
2022-11-01T14:28:31.620Z,99948.47
2022-11-01T14:29:34.124Z,99943.20
2022-11-01T14:30:36.361Z,99940.44
2022-11-01T14:31:38.935Z,99944.97
2022-11-01T14:32:41.424Z,99942.45
2022-11-01T14:33:43.856Z,99944.09
2022-11-01T14:34:46.565Z,99941.05
2022-11-01T14:35:50.568Z,99942.81
2022-11-01T14:36:54.493Z,99945.34
2022-11-01T14:37:56.934Z,99939.77
2022-11-01T14:38:59.447Z,99940.70
2022-11-01T14:40:01.786Z,99934.56
2022-11-01T14:41:04.271Z,99942.17
2022-11-01T14:42:06.776Z,99940.83
2022-11-01T14:43:09.230Z,99938.08
2022-11-01T14:44:11.871Z,99942.09
2022-11-01T14:45:14.195Z,99935.77
2022-11-01T14:46:16.692Z,99931.92
2022-11-01T14:47:19.158Z,99929.17
2022-11-01T14:48:23.221Z,99928.72
2022-11-01T14:49:25.580Z,99931.53
2022-11-01T14:50:28.036Z,99926.13
2022-11-01T14:51:30.544Z,99920.27
2022-11-01T14:52:32.938Z,99928.80
2022-11-01T14:53:35.386Z,99928.55
2022-11-01T14:54:39.478Z,99928.45
2022-11-01T14:55:41.898Z,99931.56
2022-11-01T14:56:44.357Z,99933.18
2022-11-01T14:57:49.586Z,99927.78
2022-11-01T14:58:53.492Z,99933.66
2022-11-01T14:59:55.931Z,99943.11
2022-11-01T15:00:59.920Z,99937.73
2022-11-01T15:02:03.125Z,99940.94
2022-11-01T15:03:04.674Z,99935.74
2022-11-01T15:04:08.894Z,99934.70
2022-11-01T15:05:11.150Z,99932.56
2022-11-01T15:06:13.635Z,99937.41
2022-11-01T15:07:16.151Z,99933.06
2022-11-01T15:08:20.313Z,99937.47
2022-11-01T15:09:22.639Z,99942.75
2022-11-01T15:10:26.674Z,99936.09
2022-11-01T15:11:30.640Z,99934.38
2022-11-01T15:12:33.018Z,99938.58
2022-11-01T15:13:37.063Z,99939.23
2022-11-01T15:14:39.411Z,99936.00
2022-11-01T15:15:43.577Z,99939.88
2022-11-01T15:16:45.893Z,99951.79
2022-11-01T15:17:48.240Z,99951.33
2022-11-01T15:18:50.800Z,99941.45
2022-11-01T15:19:54.752Z,99939.20
2022-11-01T15:20:58.175Z,99944.03
2022-11-01T15:22:02.054Z,99949.15
2022-11-01T15:23:04.741Z,99947.77
2022-11-01T15:24:07.867Z,99948.23
2022-11-01T15:25:11.839Z,99949.58
2022-11-01T15:26:14.174Z,99947.52
2022-11-01T15:27:18.278Z,99949.97
2022-11-01T15:28:20.624Z,99954.00
2022-11-01T15:29:24.643Z,99955.83
2022-11-01T15:30:26.942Z,99950.72
2022-11-01T15:31:31.081Z,99952.79
2022-11-01T15:32:35.009Z,99954.09
2022-11-01T15:33:37.369Z,99954.33
2022-11-01T15:43:09.510Z,99963.68
2022-11-01T15:44:13.585Z,99965.56
2022-11-01T15:45:15.990Z,99970.88
2022-11-01T15:46:20.096Z,99964.17
2022-11-01T15:55:52.133Z,99968.85
2022-11-01T16:05:24.279Z,99970.03
2022-11-01T16:14:59.673Z,99974.38
2022-11-01T16:24:32.314Z,99989.66
2022-11-01T16:34:06.354Z,100006.41
2022-11-01T16:43:39.908Z,100014.59
2022-11-01T16:53:13.784Z,100025.98
2022-11-01T17:02:47.926Z,100035.59
2022-11-01T17:12:20.307Z,100039.38
2022-11-01T17:21:55.641Z,100040.61
2022-11-01T17:31:30.826Z,100063.59
2022-11-01T17:41:01.891Z,100060.20
2022-11-01T17:50:37.795Z,100061.94
2022-11-01T17:51:41.854Z,100060.87
2022-11-01T18:01:15.452Z,100058.28
2022-11-01T18:10:48.321Z,100062.67
2022-11-01T18:20:21.535Z,100056.80
2022-11-01T18:29:58.129Z,100063.09
2022-11-01T18:39:31.067Z,100072.57
2022-11-01T18:49:04.821Z,100082.57
2022-11-01T18:50:07.286Z,100087.16
2022-11-01T18:59:41.268Z,100083.22
2022-11-01T19:09:13.179Z,100076.84
2022-11-01T19:18:47.059Z,100073.23
2022-11-01T19:19:51.183Z,100075.58
2022-11-01T19:29:23.443Z,100058.69
2022-11-01T19:38:58.034Z,100068.31
2022-11-01T19:48:31.618Z,100073.07
2022-11-01T19:58:05.092Z,100064.72
2022-11-01T20:07:38.682Z,100066.94
2022-11-01T20:17:13.069Z,100083.69
2022-11-01T20:26:48.018Z,100088.84
2022-11-01T20:27:50.375Z,100091.70
2022-11-01T20:28:58.463Z,100088.28
2022-11-01T20:38:27.405Z,100089.25
2022-11-01T20:48:02.454Z,100095.41
2022-11-01T20:57:37.281Z,100101.10
2022-11-01T21:07:09.541Z,100115.38
2022-11-01T21:16:42.968Z,100119.86
2022-11-01T21:26:16.484Z,100112.01
2022-11-01T21:35:51.448Z,100114.54
2022-11-01T21:45:24.746Z,100113.81
2022-11-01T21:55:01.902Z,100121.08
2022-11-01T22:04:29.732Z,100122.68
2022-11-01T22:14:03.251Z,100122.55
2022-11-01T22:23:36.499Z,100119.98
2022-11-01T22:33:09.868Z,100116.39
2022-11-01T22:42:43.750Z,100104.59
2022-11-01T22:52:19.668Z,100113.92
2022-11-01T23:01:56.580Z,100120.00
2022-11-01T23:11:27.335Z,100116.91
2022-11-01T23:21:03.261Z,100109.95
2022-11-01T23:30:36.030Z,100103.11
2022-11-01T23:40:10.134Z,100104.50
2022-11-01T23:49:44.564Z,100105.91
2022-11-01T23:59:20.440Z,100087.77
